sensor_id;sensor_type;location;lat;lon;timestamp;P1;durP1;ratioP1;P2;durP2;ratioP2
28934;SDS011;16044;52.726;-2.108;2023-07-13T00:00:27;6.57;;;2.67;;
28934;SDS011;16044;52.726;-2.108;2023-07-13T00:02:58;12.70;;;2.75;;
28934;SDS011;16044;52.726;-2.108;2023-07-13T00:05:32;5.57;;;2.42;;
28934;SDS011;16044;52.726;-2.108;2023-07-13T00:08:02;7.05;;;2.72;;
28934;SDS011;16044;52.726;-2.108;2023-07-13T00:10:38;6.55;;;2.50;;
28934;SDS011;16044;52.726;-2.108;2023-07-13T00:13:13;8.82;;;2.47;;
28934;SDS011;16044;52.726;-2.108;2023-07-13T00:15:44;7.60;;;2.42;;
28934;SDS011;16044;52.726;-2.108;2023-07-13T00:18:14;6.68;;;2.45;;
28934;SDS011;16044;52.726;-2.108;2023-07-13T00:20:47;7.47;;;1.90;;
28934;SDS011;16044;52.726;-2.108;2023-07-13T00:23:18;8.18;;;2.47;;
28934;SDS011;16044;52.726;-2.108;2023-07-13T00:25:48;11.52;;;2.47;;
28934;SDS011;16044;52.726;-2.108;2023-07-13T00:28:18;8.98;;;2.55;;
28934;SDS011;16044;52.726;-2.108;2023-07-13T00:30:49;9.43;;;3.05;;
28934;SDS011;16044;52.726;-2.108;2023-07-13T00:33:19;7.18;;;2.58;;
28934;SDS011;16044;52.726;-2.108;2023-07-13T00:35:53;8.68;;;2.30;;
28934;SDS011;16044;52.726;-2.108;2023-07-13T00:38:24;7.70;;;2.60;;
28934;SDS011;16044;52.726;-2.108;2023-07-13T00:40:54;7.28;;;2.42;;
28934;SDS011;16044;52.726;-2.108;2023-07-13T00:43:25;7.18;;;2.67;;
28934;SDS011;16044;52.726;-2.108;2023-07-13T00:46:15;8.95;;;2.70;;
28934;SDS011;16044;52.726;-2.108;2023-07-13T00:48:53;8.80;;;2.42;;
28934;SDS011;16044;52.726;-2.108;2023-07-13T00:51:33;7.32;;;2.50;;
28934;SDS011;16044;52.726;-2.108;2023-07-13T00:54:08;8.45;;;2.50;;
28934;SDS011;16044;52.726;-2.108;2023-07-13T00:56:43;9.60;;;3.20;;
28934;SDS011;16044;52.726;-2.108;2023-07-13T00:59:18;8.18;;;2.75;;
28934;SDS011;16044;52.726;-2.108;2023-07-13T01:01:50;8.15;;;2.60;;
28934;SDS011;16044;52.726;-2.108;2023-07-13T01:04:23;7.43;;;2.72;;
28934;SDS011;16044;52.726;-2.108;2023-07-13T01:06:56;10.13;;;2.42;;
28934;SDS011;16044;52.726;-2.108;2023-07-13T01:09:27;8.73;;;2.78;;
28934;SDS011;16044;52.726;-2.108;2023-07-13T01:11:58;5.93;;;2.70;;
28934;SDS011;16044;52.726;-2.108;2023-07-13T01:14:28;11.45;;;3.25;;
28934;SDS011;16044;52.726;-2.108;2023-07-13T01:16:59;8.35;;;3.20;;
28934;SDS011;16044;52.726;-2.108;2023-07-13T01:19:32;10.77;;;3.00;;
28934;SDS011;16044;52.726;-2.108;2023-07-13T01:22:10;10.13;;;3.60;;
28934;SDS011;16044;52.726;-2.108;2023-07-13T01:24:43;9.73;;;3.63;;
28934;SDS011;16044;52.726;-2.108;2023-07-13T01:27:17;6.07;;;3.20;;
28934;SDS011;16044;52.726;-2.108;2023-07-13T01:29:52;11.35;;;3.00;;
28934;SDS011;16044;52.726;-2.108;2023-07-13T01:32:30;7.93;;;3.03;;
28934;SDS011;16044;52.726;-2.108;2023-07-13T01:35:01;9.10;;;3.00;;
28934;SDS011;16044;52.726;-2.108;2023-07-13T01:37:34;9.73;;;3.50;;
28934;SDS011;16044;52.726;-2.108;2023-07-13T01:40:05;7.70;;;2.78;;
28934;SDS011;16044;52.726;-2.108;2023-07-13T01:42:37;8.43;;;2.80;;
28934;SDS011;16044;52.726;-2.108;2023-07-13T01:45:08;9.65;;;3.00;;
28934;SDS011;16044;52.726;-2.108;2023-07-13T01:47:39;6.28;;;2.88;;
28934;SDS011;16044;52.726;-2.108;2023-07-13T01:50:09;6.85;;;2.90;;
28934;SDS011;16044;52.726;-2.108;2023-07-13T01:52:42;8.05;;;3.30;;
28934;SDS011;16044;52.726;-2.108;2023-07-13T01:55:13;8.15;;;2.83;;
28934;SDS011;16044;52.726;-2.108;2023-07-13T01:57:43;9.93;;;2.97;;
28934;SDS011;16044;52.726;-2.108;2023-07-13T02:00:14;5.93;;;2.45;;
28934;SDS011;16044;52.726;-2.108;2023-07-13T02:02:45;9.02;;;2.83;;
28934;SDS011;16044;52.726;-2.108;2023-07-13T02:05:16;6.53;;;2.78;;
28934;SDS011;16044;52.726;-2.108;2023-07-13T02:07:49;7.65;;;2.70;;
28934;SDS011;16044;52.726;-2.108;2023-07-13T02:10:20;5.72;;;2.95;;
28934;SDS011;16044;52.726;-2.108;2023-07-13T02:12:50;6.05;;;2.83;;
28934;SDS011;16044;52.726;-2.108;2023-07-13T02:15:21;6.93;;;2.72;;
28934;SDS011;16044;52.726;-2.108;2023-07-13T02:17:51;6.72;;;2.78;;
28934;SDS011;16044;52.726;-2.108;2023-07-13T02:20:23;7.35;;;2.53;;
28934;SDS011;16044;52.726;-2.108;2023-07-13T02:22:56;6.95;;;2.75;;
28934;SDS011;16044;52.726;-2.108;2023-07-13T02:25:27;6.47;;;2.45;;
28934;SDS011;16044;52.726;-2.108;2023-07-13T02:27:57;6.63;;;2.80;;
28934;SDS011;16044;52.726;-2.108;2023-07-13T02:30:27;8.88;;;2.70;;
28934;SDS011;16044;52.726;-2.108;2023-07-13T02:32:58;6.20;;;2.35;;
28934;SDS011;16044;52.726;-2.108;2023-07-13T02:35:29;8.77;;;2.67;;
28934;SDS011;16044;52.726;-2.108;2023-07-13T02:38:02;7.50;;;2.70;;
28934;SDS011;16044;52.726;-2.108;2023-07-13T02:40:32;4.63;;;2.15;;
28934;SDS011;16044;52.726;-2.108;2023-07-13T02:43:03;4.72;;;2.30;;
28934;SDS011;16044;52.726;-2.108;2023-07-13T02:45:33;5.05;;;2.67;;
28934;SDS011;16044;52.726;-2.108;2023-07-13T02:48:04;8.45;;;2.72;;
28934;SDS011;16044;52.726;-2.108;2023-07-13T02:50:34;7.90;;;2.60;;
28934;SDS011;16044;52.726;-2.108;2023-07-13T02:53:07;7.30;;;3.05;;
28934;SDS011;16044;52.726;-2.108;2023-07-13T02:55:38;8.75;;;2.72;;
28934;SDS011;16044;52.726;-2.108;2023-07-13T02:58:13;7.93;;;2.95;;
28934;SDS011;16044;52.726;-2.108;2023-07-13T03:00:45;7.25;;;3.30;;
28934;SDS011;16044;52.726;-2.108;2023-07-13T03:03:17;9.63;;;3.30;;
28934;SDS011;16044;52.726;-2.108;2023-07-13T03:05:47;7.72;;;3.15;;
28934;SDS011;16044;52.726;-2.108;2023-07-13T03:08:20;7.82;;;3.17;;
28934;SDS011;16044;52.726;-2.108;2023-07-13T03:10:57;5.63;;;2.92;;
28934;SDS011;16044;52.726;-2.108;2023-07-13T03:13:29;8.18;;;3.15;;
28934;SDS011;16044;52.726;-2.108;2023-07-13T03:16:00;9.07;;;3.38;;
28934;SDS011;16044;52.726;-2.108;2023-07-13T03:18:30;10.52;;;3.28;;
28934;SDS011;16044;52.726;-2.108;2023-07-13T03:21:01;10.07;;;3.15;;
28934;SDS011;16044;52.726;-2.108;2023-07-13T03:23:34;9.43;;;3.47;;
28934;SDS011;16044;52.726;-2.108;2023-07-13T03:26:05;8.55;;;3.30;;
28934;SDS011;16044;52.726;-2.108;2023-07-13T03:28:40;6.72;;;3.08;;
28934;SDS011;16044;52.726;-2.108;2023-07-13T03:31:12;8.52;;;2.83;;
28934;SDS011;16044;52.726;-2.108;2023-07-13T03:33:46;6.15;;;2.80;;
28934;SDS011;16044;52.726;-2.108;2023-07-13T03:36:19;7.70;;;2.40;;
28934;SDS011;16044;52.726;-2.108;2023-07-13T03:38:54;8.07;;;2.75;;
28934;SDS011;16044;52.726;-2.108;2023-07-13T03:41:27;7.68;;;3.33;;
28934;SDS011;16044;52.726;-2.108;2023-07-13T03:43:58;6.70;;;2.67;;
28934;SDS011;16044;52.726;-2.108;2023-07-13T03:46:28;6.78;;;2.53;;
28934;SDS011;16044;52.726;-2.108;2023-07-13T03:49:00;7.65;;;2.88;;
28934;SDS011;16044;52.726;-2.108;2023-07-13T03:51:31;7.70;;;3.10;;
28934;SDS011;16044;52.726;-2.108;2023-07-13T03:54:04;8.80;;;2.95;;
28934;SDS011;16044;52.726;-2.108;2023-07-13T03:56:35;8.10;;;2.88;;
28934;SDS011;16044;52.726;-2.108;2023-07-13T03:59:05;7.57;;;2.78;;
28934;SDS011;16044;52.726;-2.108;2023-07-13T04:01:35;7.47;;;2.85;;
28934;SDS011;16044;52.726;-2.108;2023-07-13T04:04:06;4.47;;;2.53;;
28934;SDS011;16044;52.726;-2.108;2023-07-13T04:06:36;6.05;;;2.90;;
28934;SDS011;16044;52.726;-2.108;2023-07-13T04:09:10;6.78;;;2.95;;
28934;SDS011;16044;52.726;-2.108;2023-07-13T04:11:40;7.30;;;3.38;;
28934;SDS011;16044;52.726;-2.108;2023-07-13T04:14:10;10.32;;;3.22;;
28934;SDS011;16044;52.726;-2.108;2023-07-13T04:16:41;7.65;;;3.28;;
28934;SDS011;16044;52.726;-2.108;2023-07-13T04:19:12;6.07;;;2.97;;
28934;SDS011;16044;52.726;-2.108;2023-07-13T04:21:43;5.85;;;2.67;;
28934;SDS011;16044;52.726;-2.108;2023-07-13T04:24:16;14.80;;;3.05;;
28934;SDS011;16044;52.726;-2.108;2023-07-13T04:26:49;4.40;;;2.65;;
28934;SDS011;16044;52.726;-2.108;2023-07-13T04:29:20;8.10;;;3.28;;
28934;SDS011;16044;52.726;-2.108;2023-07-13T04:31:50;9.15;;;3.40;;
28934;SDS011;16044;52.726;-2.108;2023-07-13T04:34:20;9.10;;;3.30;;
28934;SDS011;16044;52.726;-2.108;2023-07-13T04:36:51;8.38;;;3.20;;
28934;SDS011;16044;52.726;-2.108;2023-07-13T04:39:24;11.55;;;3.67;;
28934;SDS011;16044;52.726;-2.108;2023-07-13T04:41:54;9.77;;;3.90;;
28934;SDS011;16044;52.726;-2.108;2023-07-13T04:44:25;11.38;;;3.70;;
28934;SDS011;16044;52.726;-2.108;2023-07-13T04:46:55;8.95;;;3.40;;
28934;SDS011;16044;52.726;-2.108;2023-07-13T04:49:25;15.05;;;3.90;;
28934;SDS011;16044;52.726;-2.108;2023-07-13T04:51:55;9.93;;;3.63;;
28934;SDS011;16044;52.726;-2.108;2023-07-13T04:54:28;8.68;;;3.72;;
28934;SDS011;16044;52.726;-2.108;2023-07-13T04:56:59;8.52;;;3.72;;
28934;SDS011;16044;52.726;-2.108;2023-07-13T04:59:29;8.32;;;3.38;;
28934;SDS011;16044;52.726;-2.108;2023-07-13T05:02:00;8.18;;;3.42;;
28934;SDS011;16044;52.726;-2.108;2023-07-13T05:04:31;9.85;;;3.60;;
28934;SDS011;16044;52.726;-2.108;2023-07-13T05:07:02;10.27;;;3.40;;
28934;SDS011;16044;52.726;-2.108;2023-07-13T05:09:35;11.32;;;3.40;;
28934;SDS011;16044;52.726;-2.108;2023-07-13T05:12:08;7.90;;;3.38;;
28934;SDS011;16044;52.726;-2.108;2023-07-13T05:14:38;11.15;;;3.78;;
28934;SDS011;16044;52.726;-2.108;2023-07-13T05:17:09;8.80;;;3.47;;
28934;SDS011;16044;52.726;-2.108;2023-07-13T05:19:39;7.40;;;3.33;;
28934;SDS011;16044;52.726;-2.108;2023-07-13T05:22:09;10.40;;;3.95;;
28934;SDS011;16044;52.726;-2.108;2023-07-13T05:24:42;7.90;;;3.25;;
28934;SDS011;16044;52.726;-2.108;2023-07-13T05:27:13;5.95;;;2.88;;
28934;SDS011;16044;52.726;-2.108;2023-07-13T05:29:43;10.73;;;3.97;;
28934;SDS011;16044;52.726;-2.108;2023-07-13T05:32:13;8.10;;;3.38;;
28934;SDS011;16044;52.726;-2.108;2023-07-13T05:34:44;10.13;;;3.47;;
28934;SDS011;16044;52.726;-2.108;2023-07-13T05:37:14;8.85;;;3.50;;
28934;SDS011;16044;52.726;-2.108;2023-07-13T05:39:47;8.63;;;3.28;;
28934;SDS011;16044;52.726;-2.108;2023-07-13T05:42:18;9.60;;;3.20;;
28934;SDS011;16044;52.726;-2.108;2023-07-13T05:44:48;7.32;;;3.25;;
28934;SDS011;16044;52.726;-2.108;2023-07-13T05:47:18;7.22;;;3.20;;
28934;SDS011;16044;52.726;-2.108;2023-07-13T05:49:49;10.18;;;3.67;;
28934;SDS011;16044;52.726;-2.108;2023-07-13T05:52:19;7.20;;;2.70;;
28934;SDS011;16044;52.726;-2.108;2023-07-13T05:54:52;10.23;;;3.22;;
28934;SDS011;16044;52.726;-2.108;2023-07-13T05:57:22;7.25;;;3.30;;
28934;SDS011;16044;52.726;-2.108;2023-07-13T05:59:53;7.20;;;3.10;;
28934;SDS011;16044;52.726;-2.108;2023-07-13T06:02:23;11.23;;;2.90;;
28934;SDS011;16044;52.726;-2.108;2023-07-13T06:04:53;8.80;;;2.35;;
28934;SDS011;16044;52.726;-2.108;2023-07-13T06:07:24;7.13;;;2.42;;
28934;SDS011;16044;52.726;-2.108;2023-07-13T06:09:57;6.45;;;2.30;;
28934;SDS011;16044;52.726;-2.108;2023-07-13T06:12:28;6.38;;;2.30;;
28934;SDS011;16044;52.726;-2.108;2023-07-13T06:14:59;9.43;;;2.50;;
28934;SDS011;16044;52.726;-2.108;2023-07-13T06:17:29;6.60;;;2.10;;
28934;SDS011;16044;52.726;-2.108;2023-07-13T06:20:00;5.95;;;2.03;;
28934;SDS011;16044;52.726;-2.108;2023-07-13T06:22:30;7.97;;;2.60;;
28934;SDS011;16044;52.726;-2.108;2023-07-13T06:25:04;7.45;;;2.50;;
28934;SDS011;16044;52.726;-2.108;2023-07-13T06:27:36;7.63;;;2.10;;
28934;SDS011;16044;52.726;-2.108;2023-07-13T06:30:07;6.55;;;2.30;;
28934;SDS011;16044;52.726;-2.108;2023-07-13T06:32:39;10.85;;;2.00;;
28934;SDS011;16044;52.726;-2.108;2023-07-13T06:35:09;4.80;;;1.90;;
28934;SDS011;16044;52.726;-2.108;2023-07-13T06:37:40;7.07;;;1.90;;
28934;SDS011;16044;52.726;-2.108;2023-07-13T06:40:13;9.05;;;2.90;;
28934;SDS011;16044;52.726;-2.108;2023-07-13T06:42:44;9.43;;;2.25;;
28934;SDS011;16044;52.726;-2.108;2023-07-13T06:45:14;5.88;;;1.90;;
28934;SDS011;16044;52.726;-2.108;2023-07-13T06:47:45;6.40;;;2.00;;
28934;SDS011;16044;52.726;-2.108;2023-07-13T06:50:16;7.57;;;2.13;;
28934;SDS011;16044;52.726;-2.108;2023-07-13T06:52:46;7.10;;;1.95;;
28934;SDS011;16044;52.726;-2.108;2023-07-13T06:55:19;7.82;;;2.38;;
28934;SDS011;16044;52.726;-2.108;2023-07-13T06:57:50;7.25;;;2.10;;
28934;SDS011;16044;52.726;-2.108;2023-07-13T07:00:20;5.28;;;2.40;;
28934;SDS011;16044;52.726;-2.108;2023-07-13T07:02:51;4.55;;;1.88;;
28934;SDS011;16044;52.726;-2.108;2023-07-13T07:05:22;7.63;;;2.30;;
28934;SDS011;16044;52.726;-2.108;2023-07-13T07:07:54;5.80;;;1.83;;
28934;SDS011;16044;52.726;-2.108;2023-07-13T07:10:28;8.45;;;2.17;;
28934;SDS011;16044;52.726;-2.108;2023-07-13T07:13:00;8.80;;;2.10;;
28934;SDS011;16044;52.726;-2.108;2023-07-13T07:15:31;8.68;;;2.40;;
28934;SDS011;16044;52.726;-2.108;2023-07-13T07:18:01;6.10;;;2.00;;
28934;SDS011;16044;52.726;-2.108;2023-07-13T07:20:32;8.02;;;1.95;;
28934;SDS011;16044;52.726;-2.108;2023-07-13T07:23:02;6.22;;;2.00;;
28934;SDS011;16044;52.726;-2.108;2023-07-13T07:25:35;7.20;;;1.92;;
28934;SDS011;16044;52.726;-2.108;2023-07-13T07:28:08;7.20;;;2.10;;
28934;SDS011;16044;52.726;-2.108;2023-07-13T07:30:59;8.63;;;2.78;;
28934;SDS011;16044;52.726;-2.108;2023-07-13T07:33:32;7.90;;;2.70;;
28934;SDS011;16044;52.726;-2.108;2023-07-13T07:36:03;8.57;;;2.67;;
28934;SDS011;16044;52.726;-2.108;2023-07-13T07:38:37;7.15;;;2.10;;
28934;SDS011;16044;52.726;-2.108;2023-07-13T07:41:10;6.75;;;2.17;;
28934;SDS011;16044;52.726;-2.108;2023-07-13T07:43:43;8.52;;;2.45;;
28934;SDS011;16044;52.726;-2.108;2023-07-13T07:46:14;9.45;;;2.58;;
28934;SDS011;16044;52.726;-2.108;2023-07-13T07:48:44;12.18;;;2.85;;
28934;SDS011;16044;52.726;-2.108;2023-07-13T07:51:14;9.85;;;3.00;;
28934;SDS011;16044;52.726;-2.108;2023-07-13T07:53:45;8.38;;;1.98;;
28934;SDS011;16044;52.726;-2.108;2023-07-13T07:56:18;8.20;;;2.63;;
28934;SDS011;16044;52.726;-2.108;2023-07-13T07:58:51;6.72;;;1.85;;
28934;SDS011;16044;52.726;-2.108;2023-07-13T08:01:24;7.82;;;2.13;;
28934;SDS011;16044;52.726;-2.108;2023-07-13T08:03:57;5.43;;;1.80;;
28934;SDS011;16044;52.726;-2.108;2023-07-13T08:06:31;7.82;;;1.45;;
28934;SDS011;16044;52.726;-2.108;2023-07-13T08:09:05;7.40;;;2.10;;
28934;SDS011;16044;52.726;-2.108;2023-07-13T08:11:38;4.97;;;1.50;;
28934;SDS011;16044;52.726;-2.108;2023-07-13T08:14:11;5.13;;;1.83;;
28934;SDS011;16044;52.726;-2.108;2023-07-13T08:16:42;6.15;;;1.77;;
28934;SDS011;16044;52.726;-2.108;2023-07-13T08:19:12;4.78;;;1.40;;
28934;SDS011;16044;52.726;-2.108;2023-07-13T08:21:43;3.85;;;1.58;;
28934;SDS011;16044;52.726;-2.108;2023-07-13T08:24:15;6.70;;;1.88;;
28934;SDS011;16044;52.726;-2.108;2023-07-13T08:26:48;5.93;;;1.55;;
28934;SDS011;16044;52.726;-2.108;2023-07-13T08:29:19;7.15;;;1.88;;
28934;SDS011;16044;52.726;-2.108;2023-07-13T08:31:50;9.48;;;1.80;;
28934;SDS011;16044;52.726;-2.108;2023-07-13T08:34:21;7.07;;;1.67;;
28934;SDS011;16044;52.726;-2.108;2023-07-13T08:36:51;7.75;;;1.70;;
28934;SDS011;16044;52.726;-2.108;2023-07-13T08:39:21;5.47;;;1.48;;
28934;SDS011;16044;52.726;-2.108;2023-07-13T08:42:01;5.55;;;1.52;;
28934;SDS011;16044;52.726;-2.108;2023-07-13T08:44:40;5.97;;;1.40;;
28934;SDS011;16044;52.726;-2.108;2023-07-13T08:47:23;3.63;;;1.40;;
28934;SDS011;16044;52.726;-2.108;2023-07-13T08:49:55;6.28;;;1.73;;
28934;SDS011;16044;52.726;-2.108;2023-07-13T08:52:29;4.20;;;1.58;;
28934;SDS011;16044;52.726;-2.108;2023-07-13T08:55:09;6.78;;;1.80;;
28934;SDS011;16044;52.726;-2.108;2023-07-13T08:57:49;5.05;;;1.73;;
28934;SDS011;16044;52.726;-2.108;2023-07-13T09:00:27;9.23;;;1.70;;
28934;SDS011;16044;52.726;-2.108;2023-07-13T09:03:12;6.18;;;2.20;;
28934;SDS011;16044;52.726;-2.108;2023-07-13T09:05:51;7.15;;;2.00;;
28934;SDS011;16044;52.726;-2.108;2023-07-13T09:08:32;9.05;;;2.60;;
28934;SDS011;16044;52.726;-2.108;2023-07-13T09:11:17;7.53;;;2.15;;
28934;SDS011;16044;52.726;-2.108;2023-07-13T09:14:19;6.57;;;1.73;;
28934;SDS011;16044;52.726;-2.108;2023-07-13T09:17:15;4.70;;;1.77;;
28934;SDS011;16044;52.726;-2.108;2023-07-13T09:19:50;18.17;;;2.53;;
28934;SDS011;16044;52.726;-2.108;2023-07-13T09:22:30;16.50;;;3.38;;
28934;SDS011;16044;52.726;-2.108;2023-07-13T09:25:05;12.63;;;3.70;;
28934;SDS011;16044;52.726;-2.108;2023-07-13T09:27:54;8.77;;;2.95;;
28934;SDS011;16044;52.726;-2.108;2023-07-13T09:30:36;14.75;;;4.13;;
28934;SDS011;16044;52.726;-2.108;2023-07-13T09:33:15;6.55;;;2.08;;
28934;SDS011;16044;52.726;-2.108;2023-07-13T09:35:45;9.32;;;2.50;;
28934;SDS011;16044;52.726;-2.108;2023-07-13T09:38:17;5.13;;;1.70;;
28934;SDS011;16044;52.726;-2.108;2023-07-13T09:40:53;6.40;;;1.40;;
28934;SDS011;16044;52.726;-2.108;2023-07-13T09:43:36;5.43;;;1.70;;
28934;SDS011;16044;52.726;-2.108;2023-07-13T09:46:18;4.25;;;1.67;;
28934;SDS011;16044;52.726;-2.108;2023-07-13T09:48:51;5.15;;;1.60;;
28934;SDS011;16044;52.726;-2.108;2023-07-13T09:51:22;6.32;;;1.75;;
28934;SDS011;16044;52.726;-2.108;2023-07-13T09:53:53;4.25;;;1.73;;
28934;SDS011;16044;52.726;-2.108;2023-07-13T09:56:25;3.58;;;1.58;;
28934;SDS011;16044;52.726;-2.108;2023-07-13T09:58:58;4.00;;;1.55;;
28934;SDS011;16044;52.726;-2.108;2023-07-13T10:01:35;6.25;;;1.80;;
28934;SDS011;16044;52.726;-2.108;2023-07-13T10:04:11;5.07;;;1.73;;
28934;SDS011;16044;52.726;-2.108;2023-07-13T10:06:42;5.20;;;2.00;;
28934;SDS011;16044;52.726;-2.108;2023-07-13T10:11:49;3.13;;;1.50;;
28934;SDS011;16044;52.726;-2.108;2023-07-13T10:14:21;4.22;;;1.45;;
28934;SDS011;16044;52.726;-2.108;2023-07-13T10:16:56;5.65;;;1.70;;
28934;SDS011;16044;52.726;-2.108;2023-07-13T10:19:31;4.03;;;1.50;;
28934;SDS011;16044;52.726;-2.108;2023-07-13T10:22:10;6.75;;;1.90;;
28934;SDS011;16044;52.726;-2.108;2023-07-13T10:24:51;5.72;;;1.83;;
28934;SDS011;16044;52.726;-2.108;2023-07-13T10:27:23;6.53;;;1.70;;
28934;SDS011;16044;52.726;-2.108;2023-07-13T10:30:02;4.63;;;1.85;;
28934;SDS011;16044;52.726;-2.108;2023-07-13T10:32:45;6.80;;;2.20;;
28934;SDS011;16044;52.726;-2.108;2023-07-13T10:35:17;4.05;;;1.92;;
28934;SDS011;16044;52.726;-2.108;2023-07-13T10:37:51;7.97;;;2.30;;
28934;SDS011;16044;52.726;-2.108;2023-07-13T10:40:28;5.57;;;2.05;;
28934;SDS011;16044;52.726;-2.108;2023-07-13T10:43:05;6.45;;;2.38;;
28934;SDS011;16044;52.726;-2.108;2023-07-13T10:45:42;5.35;;;1.80;;
28934;SDS011;16044;52.726;-2.108;2023-07-13T10:48:19;5.20;;;2.05;;
28934;SDS011;16044;52.726;-2.108;2023-07-13T10:50:52;5.57;;;1.98;;
28934;SDS011;16044;52.726;-2.108;2023-07-13T10:55:59;4.90;;;2.10;;
28934;SDS011;16044;52.726;-2.108;2023-07-13T10:58:35;7.55;;;2.10;;
28934;SDS011;16044;52.726;-2.108;2023-07-13T11:01:08;4.15;;;1.90;;
28934;SDS011;16044;52.726;-2.108;2023-07-13T11:03:49;4.63;;;1.80;;
28934;SDS011;16044;52.726;-2.108;2023-07-13T11:06:30;4.90;;;2.00;;
28934;SDS011;16044;52.726;-2.108;2023-07-13T11:09:18;6.40;;;1.92;;
28934;SDS011;16044;52.726;-2.108;2023-07-13T11:12:07;4.45;;;1.75;;
28934;SDS011;16044;52.726;-2.108;2023-07-13T11:15:00;7.45;;;2.38;;
28934;SDS011;16044;52.726;-2.108;2023-07-13T11:17:47;4.32;;;2.13;;
28934;SDS011;16044;52.726;-2.108;2023-07-13T11:20:37;4.72;;;2.05;;
28934;SDS011;16044;52.726;-2.108;2023-07-13T11:23:18;4.43;;;1.90;;
28934;SDS011;16044;52.726;-2.108;2023-07-13T11:25:58;4.00;;;2.00;;
28934;SDS011;16044;52.726;-2.108;2023-07-13T11:28:30;5.03;;;1.90;;
28934;SDS011;16044;52.726;-2.108;2023-07-13T11:31:03;4.45;;;2.00;;
28934;SDS011;16044;52.726;-2.108;2023-07-13T11:33:53;5.32;;;2.50;;
28934;SDS011;16044;52.726;-2.108;2023-07-13T11:36:30;7.40;;;2.03;;
28934;SDS011;16044;52.726;-2.108;2023-07-13T11:39:15;6.80;;;2.20;;
28934;SDS011;16044;52.726;-2.108;2023-07-13T11:41:50;4.43;;;1.90;;
28934;SDS011;16044;52.726;-2.108;2023-07-13T11:44:24;2.97;;;1.83;;
28934;SDS011;16044;52.726;-2.108;2023-07-13T11:46:58;5.38;;;2.10;;
28934;SDS011;16044;52.726;-2.108;2023-07-13T11:49:31;5.15;;;2.35;;
28934;SDS011;16044;52.726;-2.108;2023-07-13T11:52:04;5.28;;;2.00;;
28934;SDS011;16044;52.726;-2.108;2023-07-13T11:54:42;4.00;;;1.88;;
28934;SDS011;16044;52.726;-2.108;2023-07-13T11:57:23;5.75;;;2.17;;
28934;SDS011;16044;52.726;-2.108;2023-07-13T11:59:58;4.35;;;2.00;;
28934;SDS011;16044;52.726;-2.108;2023-07-13T12:02:33;4.45;;;2.05;;
28934;SDS011;16044;52.726;-2.108;2023-07-13T12:07:44;3.90;;;1.90;;
28934;SDS011;16044;52.726;-2.108;2023-07-13T12:10:19;7.03;;;2.25;;
28934;SDS011;16044;52.726;-2.108;2023-07-13T12:12:53;7.90;;;2.17;;
28934;SDS011;16044;52.726;-2.108;2023-07-13T12:15:28;6.93;;;2.50;;
28934;SDS011;16044;52.726;-2.108;2023-07-13T12:18:09;6.95;;;2.63;;
28934;SDS011;16044;52.726;-2.108;2023-07-13T12:20:44;5.45;;;2.17;;
28934;SDS011;16044;52.726;-2.108;2023-07-13T12:23:20;6.72;;;2.30;;
28934;SDS011;16044;52.726;-2.108;2023-07-13T12:25:54;5.40;;;2.40;;
28934;SDS011;16044;52.726;-2.108;2023-07-13T12:28:30;5.75;;;2.35;;
28934;SDS011;16044;52.726;-2.108;2023-07-13T12:31:04;7.55;;;2.40;;
28934;SDS011;16044;52.726;-2.108;2023-07-13T12:33:39;6.13;;;2.88;;
28934;SDS011;16044;52.726;-2.108;2023-07-13T12:36:10;5.63;;;2.38;;
28934;SDS011;16044;52.726;-2.108;2023-07-13T12:38:44;6.35;;;2.38;;
28934;SDS011;16044;52.726;-2.108;2023-07-13T12:41:16;4.55;;;2.10;;
28934;SDS011;16044;52.726;-2.108;2023-07-13T12:43:47;4.68;;;2.00;;
28934;SDS011;16044;52.726;-2.108;2023-07-13T12:46:18;7.07;;;2.30;;
28934;SDS011;16044;52.726;-2.108;2023-07-13T12:48:51;5.53;;;1.92;;
28934;SDS011;16044;52.726;-2.108;2023-07-13T12:51:42;5.47;;;1.92;;
28934;SDS011;16044;52.726;-2.108;2023-07-13T12:54:16;5.22;;;2.00;;
28934;SDS011;16044;52.726;-2.108;2023-07-13T12:59:20;4.20;;;2.00;;
28934;SDS011;16044;52.726;-2.108;2023-07-13T13:01:53;5.05;;;2.08;;
28934;SDS011;16044;52.726;-2.108;2023-07-13T13:04:23;5.15;;;2.20;;
28934;SDS011;16044;52.726;-2.108;2023-07-13T13:07:01;4.95;;;1.90;;
28934;SDS011;16044;52.726;-2.108;2023-07-13T13:09:35;4.88;;;2.08;;
28934;SDS011;16044;52.726;-2.108;2023-07-13T13:12:07;4.55;;;2.15;;
28934;SDS011;16044;52.726;-2.108;2023-07-13T13:14:40;5.57;;;2.20;;
28934;SDS011;16044;52.726;-2.108;2023-07-13T13:17:18;4.93;;;2.00;;
28934;SDS011;16044;52.726;-2.108;2023-07-13T13:19:51;4.18;;;1.95;;
28934;SDS011;16044;52.726;-2.108;2023-07-13T13:22:22;5.97;;;2.15;;
28934;SDS011;16044;52.726;-2.108;2023-07-13T13:24:56;4.55;;;2.20;;
28934;SDS011;16044;52.726;-2.108;2023-07-13T13:27:29;5.63;;;1.80;;
28934;SDS011;16044;52.726;-2.108;2023-07-13T13:29:59;4.72;;;1.77;;
28934;SDS011;16044;52.726;-2.108;2023-07-13T13:32:30;5.55;;;2.28;;
28934;SDS011;16044;52.726;-2.108;2023-07-13T13:35:00;5.88;;;2.40;;
28934;SDS011;16044;52.726;-2.108;2023-07-13T13:37:30;4.90;;;2.17;;
28934;SDS011;16044;52.726;-2.108;2023-07-13T13:40:04;6.15;;;2.30;;
28934;SDS011;16044;52.726;-2.108;2023-07-13T13:42:44;4.95;;;2.25;;
28934;SDS011;16044;52.726;-2.108;2023-07-13T13:45:14;6.60;;;2.30;;
28934;SDS011;16044;52.726;-2.108;2023-07-13T13:47:47;4.97;;;2.17;;
28934;SDS011;16044;52.726;-2.108;2023-07-13T13:50:18;6.97;;;2.50;;
28934;SDS011;16044;52.726;-2.108;2023-07-13T13:52:51;5.97;;;2.50;;
28934;SDS011;16044;52.726;-2.108;2023-07-13T13:55:24;4.82;;;2.15;;
28934;SDS011;16044;52.726;-2.108;2023-07-13T13:57:54;6.50;;;2.20;;
28934;SDS011;16044;52.726;-2.108;2023-07-13T14:00:25;4.20;;;2.20;;
28934;SDS011;16044;52.726;-2.108;2023-07-13T14:02:55;5.65;;;1.95;;
28934;SDS011;16044;52.726;-2.108;2023-07-13T14:05:26;3.90;;;2.05;;
28934;SDS011;16044;52.726;-2.108;2023-07-13T14:07:57;4.95;;;2.05;;
28934;SDS011;16044;52.726;-2.108;2023-07-13T14:10:30;3.95;;;2.10;;
28934;SDS011;16044;52.726;-2.108;2023-07-13T14:13:00;4.07;;;2.38;;
28934;SDS011;16044;52.726;-2.108;2023-07-13T14:15:32;4.50;;;2.00;;
28934;SDS011;16044;52.726;-2.108;2023-07-13T14:18:03;6.97;;;2.20;;
28934;SDS011;16044;52.726;-2.108;2023-07-13T14:20:33;5.03;;;2.10;;
28934;SDS011;16044;52.726;-2.108;2023-07-13T14:23:04;3.45;;;1.90;;
28934;SDS011;16044;52.726;-2.108;2023-07-13T14:25:37;3.55;;;1.85;;
28934;SDS011;16044;52.726;-2.108;2023-07-13T14:28:13;5.03;;;1.90;;
28934;SDS011;16044;52.726;-2.108;2023-07-13T14:30:51;5.45;;;1.98;;
28934;SDS011;16044;52.726;-2.108;2023-07-13T14:33:22;4.93;;;2.10;;
28934;SDS011;16044;52.726;-2.108;2023-07-13T14:35:53;3.60;;;1.88;;
28934;SDS011;16044;52.726;-2.108;2023-07-13T14:38:23;5.13;;;1.90;;
28934;SDS011;16044;52.726;-2.108;2023-07-13T14:40:56;5.82;;;2.20;;
28934;SDS011;16044;52.726;-2.108;2023-07-13T14:43:26;5.63;;;2.45;;
28934;SDS011;16044;52.726;-2.108;2023-07-13T14:45:57;7.22;;;2.05;;
28934;SDS011;16044;52.726;-2.108;2023-07-13T14:48:27;3.92;;;1.90;;
28934;SDS011;16044;52.726;-2.108;2023-07-13T14:50:58;6.80;;;2.20;;
28934;SDS011;16044;52.726;-2.108;2023-07-13T14:53:29;3.65;;;1.75;;
28934;SDS011;16044;52.726;-2.108;2023-07-13T14:56:02;5.53;;;2.00;;
28934;SDS011;16044;52.726;-2.108;2023-07-13T14:58:40;5.90;;;2.00;;
28934;SDS011;16044;52.726;-2.108;2023-07-13T15:01:11;4.65;;;1.92;;
28934;SDS011;16044;52.726;-2.108;2023-07-13T15:03:44;4.97;;;2.15;;
28934;SDS011;16044;52.726;-2.108;2023-07-13T15:06:18;3.63;;;2.00;;
28934;SDS011;16044;52.726;-2.108;2023-07-13T15:08:49;4.07;;;1.92;;
28934;SDS011;16044;52.726;-2.108;2023-07-13T15:11:22;7.03;;;2.17;;
28934;SDS011;16044;52.726;-2.108;2023-07-13T15:13:53;6.00;;;2.15;;
28934;SDS011;16044;52.726;-2.108;2023-07-13T15:16:23;2.95;;;1.88;;
28934;SDS011;16044;52.726;-2.108;2023-07-13T15:18:55;5.57;;;1.83;;